createdAt,value
2022-12-02T00:03:46.314Z,79.39
2022-12-02T00:08:48.337Z,78.87
2022-12-02T00:13:51.591Z,79.84
2022-12-02T00:18:54.873Z,79.35
2022-12-02T00:23:56.865Z,79.53
2022-12-02T00:29:01.557Z,78.89
2022-12-02T00:34:04.166Z,79.59
2022-12-02T00:39:06.154Z,79.50
2022-12-02T00:44:27.980Z,78.79
2022-12-02T00:49:29.940Z,78.76
2022-12-02T00:54:31.880Z,79.42
2022-12-02T00:59:35.191Z,78.82
2022-12-02T01:04:37.086Z,79.82
2022-12-02T01:09:38.988Z,79.66
2022-12-02T01:14:42.288Z,79.51
2022-12-02T01:19:44.207Z,79.48
2022-12-02T01:24:46.111Z,78.99
2022-12-02T01:29:49.341Z,79.34
2022-12-02T01:34:51.495Z,79.66
2022-12-02T01:39:53.567Z,79.35
2022-12-02T01:44:56.866Z,78.51
2022-12-02T01:49:58.906Z,79.26
2022-12-02T01:55:00.969Z,79.82
2022-12-02T02:00:05.957Z,79.49
2022-12-02T02:05:13.295Z,80.46
2022-12-02T02:10:16.030Z,79.14
2022-12-02T02:15:20.593Z,79.53
2022-12-02T02:20:24.934Z,79.10
2022-12-02T02:25:28.231Z,79.55
2022-12-02T02:30:33.382Z,79.67
2022-12-02T02:35:37.753Z,78.55
2022-12-02T02:40:42.133Z,78.93
2022-12-02T02:45:44.665Z,79.76
2022-12-02T02:50:48.253Z,80.11
2022-12-02T02:55:52.032Z,79.27
2022-12-02T03:00:59.542Z,79.61
2022-12-02T03:06:04.777Z,79.04
2022-12-02T03:11:08.240Z,80.22
2022-12-02T03:16:14.470Z,80.42
2022-12-02T03:21:18.985Z,79.29
2022-12-02T03:26:22.425Z,79.51
2022-12-02T03:31:24.687Z,79.33
2022-12-02T03:36:27.553Z,79.29
2022-12-02T03:41:30.973Z,78.59
2022-12-02T03:46:33.801Z,79.05
2022-12-02T03:51:36.085Z,80.01
2022-12-02T03:56:42.066Z,80.20
2022-12-02T04:01:44.055Z,79.54
2022-12-02T04:06:46.168Z,79.54
2022-12-02T04:11:49.485Z,79.88
2022-12-02T04:16:51.407Z,79.95
2022-12-02T04:21:53.348Z,79.96
2022-12-02T04:26:56.731Z,79.97
2022-12-02T04:31:58.643Z,79.69
2022-12-02T04:37:01.604Z,80.50
2022-12-02T04:42:05.116Z,80.03
2022-12-02T04:47:07.263Z,83.36
2022-12-02T04:52:09.407Z,84.02
2022-12-02T04:57:12.741Z,85.13
2022-12-02T05:02:14.657Z,85.38
2022-12-02T05:07:17.391Z,87.81
2022-12-02T05:12:20.739Z,86.17
2022-12-02T05:17:22.633Z,85.22
2022-12-02T05:22:24.555Z,86.33
2022-12-02T05:27:32.315Z,85.98
2022-12-02T05:32:37.242Z,85.68
2022-12-02T05:37:39.171Z,86.17
2022-12-02T05:42:42.811Z,85.63
2022-12-02T05:47:48.844Z,85.84
2022-12-02T05:52:51.062Z,84.46
2022-12-02T05:57:59.090Z,84.02
2022-12-02T06:03:05.550Z,85.01
2022-12-02T06:08:15.679Z,84.83
2022-12-02T06:13:22.310Z,84.62
2022-12-02T06:18:29.442Z,84.76
2022-12-02T06:23:33.100Z,85.58
2022-12-02T06:28:39.853Z,84.36
2022-12-02T06:33:43.645Z,85.98
2022-12-02T06:38:49.606Z,84.54
2022-12-02T06:44:16.200Z,84.95
2022-12-02T06:49:20.541Z,84.97
2022-12-02T06:54:23.680Z,84.81
2022-12-02T06:59:27.753Z,85.39
2022-12-02T07:04:38.310Z,86.03
2022-12-02T07:09:43.005Z,85.59
2022-12-02T07:14:48.344Z,84.90
2022-12-02T07:19:58.280Z,84.04
2022-12-02T07:25:23.699Z,84.00
2022-12-02T07:30:30.030Z,84.00
2022-12-02T07:35:32.329Z,83.35
2022-12-02T07:40:34.253Z,82.32
2022-12-02T07:45:37.820Z,81.02
2022-12-02T07:50:39.817Z,81.67
2022-12-02T07:55:41.763Z,81.88
2022-12-02T08:00:45.177Z,80.92
2022-12-02T08:05:47.101Z,82.13
2022-12-02T08:10:49.013Z,82.39
2022-12-02T08:15:54.217Z,81.54
2022-12-02T08:20:56.306Z,82.45
2022-12-02T08:25:58.244Z,82.56
2022-12-02T08:31:01.890Z,82.12
2022-12-02T08:36:04.363Z,82.60
2022-12-02T08:41:12.204Z,82.20
2022-12-02T08:46:17.076Z,81.46
2022-12-02T08:51:19.127Z,82.50
2022-12-02T08:56:21.175Z,81.56
2022-12-02T09:01:24.523Z,81.24
2022-12-02T09:06:26.783Z,82.45
2022-12-02T09:11:28.801Z,82.71
2022-12-02T09:16:32.097Z,83.08
2022-12-02T09:21:34.151Z,82.21
2022-12-02T09:26:36.157Z,81.98
2022-12-02T09:31:39.485Z,83.34
2022-12-02T09:36:41.548Z,81.76
2022-12-02T09:41:44.034Z,81.43
2022-12-02T09:46:47.575Z,81.21
2022-12-02T09:51:49.666Z,81.57
2022-12-02T09:56:51.596Z,82.49
2022-12-02T10:01:58.043Z,83.31
2022-12-02T10:06:59.991Z,83.90
2022-12-02T10:12:02.045Z,83.67
2022-12-02T10:17:14.922Z,83.02
2022-12-02T10:22:19.258Z,82.51
2022-12-02T10:27:26.803Z,82.89
2022-12-02T10:32:30.060Z,84.11
2022-12-02T10:37:33.664Z,83.19
2022-12-02T10:42:35.926Z,83.19
2022-12-02T10:47:39.527Z,83.83
2022-12-02T10:52:45.636Z,82.49
2022-12-02T10:57:48.527Z,83.31
2022-12-02T11:02:53.740Z,84.49
2022-12-02T11:07:58.219Z,84.80
2022-12-02T11:13:06.555Z,85.59
2022-12-02T11:18:11.756Z,85.92
2022-12-02T11:23:22.916Z,85.34
2022-12-02T11:28:47.572Z,85.97
2022-12-02T11:34:47.746Z,85.07
2022-12-02T11:39:55.941Z,84.65
2022-12-02T11:45:47.076Z,85.00
2022-12-02T11:50:50.424Z,85.58
2022-12-02T11:55:53.986Z,85.39
2022-12-02T12:01:04.591Z,84.63
2022-12-02T12:06:12.242Z,85.31
2022-12-02T12:11:19.932Z,84.86
2022-12-02T12:16:23.289Z,84.32
2022-12-02T12:21:44.828Z,85.18
2022-12-02T12:26:49.305Z,84.83
2022-12-02T12:31:51.159Z,84.38
2022-12-02T12:36:54.442Z,82.90
2022-12-02T12:42:00.971Z,83.99
2022-12-02T12:47:05.354Z,83.96
2022-12-02T12:52:08.670Z,82.36
2022-12-02T12:57:10.583Z,83.51
2022-12-02T13:02:12.591Z,83.87
2022-12-02T13:07:16.050Z,84.58
2022-12-02T13:12:18.027Z,84.63
2022-12-02T13:17:19.992Z,85.74
2022-12-02T13:22:23.304Z,84.75
2022-12-02T13:27:25.428Z,84.48
2022-12-02T13:32:27.424Z,85.56
2022-12-02T13:37:30.744Z,84.64
2022-12-02T13:42:32.696Z,85.21
2022-12-02T13:47:34.689Z,85.91
2022-12-02T13:52:37.934Z,85.95
2022-12-02T13:57:39.904Z,86.44
2022-12-02T14:02:42.379Z,86.05
2022-12-02T14:07:45.965Z,85.28
2022-12-02T14:12:48.067Z,85.14
2022-12-02T14:17:50.008Z,85.62
2022-12-02T14:22:53.289Z,85.78
2022-12-02T14:27:55.289Z,85.85
2022-12-02T14:32:57.222Z,85.75
2022-12-02T14:38:00.544Z,85.69
2022-12-02T14:43:02.636Z,86.16
2022-12-02T14:48:04.647Z,85.92
2022-12-02T14:53:08.115Z,85.88
2022-12-02T14:58:10.068Z,87.79
2022-12-02T15:03:12.061Z,87.16
2022-12-02T15:08:15.507Z,87.38
2022-12-02T15:13:17.483Z,88.18
2022-12-02T15:18:19.438Z,88.08
2022-12-02T15:23:22.727Z,86.34
2022-12-02T15:28:24.736Z,86.76
2022-12-02T15:33:26.659Z,86.43
2022-12-02T15:38:32.863Z,86.64
2022-12-02T15:43:35.436Z,85.90
2022-12-02T15:48:37.465Z,86.01
2022-12-02T15:53:41.065Z,86.62
2022-12-02T15:58:43.334Z,85.95
2022-12-02T16:03:45.299Z,86.75
2022-12-02T16:08:54.956Z,85.84
2022-12-02T16:13:57.632Z,86.32
2022-12-02T16:18:59.653Z,86.78
2022-12-02T16:24:03.122Z,86.54
2022-12-02T16:29:05.104Z,86.83
2022-12-02T16:34:07.055Z,87.01
2022-12-02T16:39:10.356Z,86.21
2022-12-02T16:44:12.299Z,85.78
2022-12-02T16:49:14.250Z,86.63
2022-12-02T16:54:17.532Z,86.39
2022-12-02T16:59:19.453Z,86.12
2022-12-02T17:04:21.504Z,86.64
2022-12-02T17:09:24.800Z,87.28
2022-12-02T17:14:26.791Z,86.59
2022-12-02T17:19:28.829Z,87.31
2022-12-02T17:24:32.090Z,87.76
2022-12-02T17:29:34.045Z,87.57
2022-12-02T17:34:35.980Z,87.54
2022-12-02T17:39:39.256Z,87.29
2022-12-02T17:44:41.148Z,87.58
2022-12-02T17:49:43.106Z,87.79
2022-12-02T17:54:46.383Z,87.26
2022-12-02T17:59:48.377Z,87.56
2022-12-02T18:04:50.514Z,87.09
2022-12-02T18:09:53.901Z,88.48
2022-12-02T18:14:55.837Z,87.75
2022-12-02T18:19:57.817Z,87.62
2022-12-02T18:25:01.148Z,88.04
2022-12-02T18:30:03.889Z,87.87
2022-12-02T18:35:07.193Z,87.70
2022-12-02T18:40:15.650Z,88.32
2022-12-02T18:45:17.744Z,87.52
2022-12-02T18:50:19.822Z,87.28
2022-12-02T18:55:23.135Z,86.86
2022-12-02T19:00:25.071Z,87.20
2022-12-02T19:05:27.020Z,87.46
2022-12-02T19:10:30.455Z,86.80
2022-12-02T19:15:38.152Z,87.65
2022-12-02T19:20:40.709Z,88.21
2022-12-02T19:25:47.062Z,87.62
2022-12-02T19:30:52.268Z,87.32
2022-12-02T19:35:54.265Z,87.66
2022-12-02T19:40:57.720Z,87.97
2022-12-02T19:45:59.665Z,87.52
2022-12-02T19:51:01.671Z,87.43
2022-12-02T19:56:05.485Z,87.32
2022-12-02T20:01:07.605Z,87.85
2022-12-02T20:06:09.584Z,87.18
2022-12-02T20:11:13.329Z,87.67
2022-12-02T20:16:15.330Z,88.15
2022-12-02T20:21:17.370Z,87.67
2022-12-02T20:26:20.729Z,88.48
2022-12-02T20:31:22.792Z,89.15
2022-12-02T20:36:24.885Z,88.69
2022-12-02T20:41:28.143Z,89.13
2022-12-02T20:46:30.645Z,88.82
2022-12-02T20:51:32.629Z,88.35
2022-12-02T20:56:35.931Z,87.02
2022-12-02T21:01:38.022Z,88.44
2022-12-02T21:06:40.032Z,87.12
2022-12-02T21:11:43.357Z,87.14
2022-12-02T21:16:45.421Z,87.47
2022-12-02T21:21:47.426Z,88.20
2022-12-02T21:26:50.750Z,86.48
2022-12-02T21:31:52.779Z,87.10
2022-12-02T21:36:54.823Z,87.17
2022-12-02T21:41:58.181Z,87.09
2022-12-02T21:47:00.199Z,86.56
2022-12-02T21:52:02.184Z,87.47
2022-12-02T21:57:07.848Z,87.37
2022-12-02T22:02:12.639Z,86.91
2022-12-02T22:07:33.440Z,87.05
2022-12-02T22:12:36.812Z,86.94
2022-12-02T22:17:38.835Z,86.93
2022-12-02T22:22:40.824Z,86.58
2022-12-02T22:27:44.117Z,86.88
2022-12-02T22:32:46.134Z,87.08
2022-12-02T22:37:48.890Z,87.13
2022-12-02T22:42:52.349Z,87.24
2022-12-02T22:47:54.282Z,87.67
2022-12-02T22:52:56.340Z,87.05
2022-12-02T22:57:59.745Z,86.26
2022-12-02T23:03:01.685Z,86.53
2022-12-02T23:08:03.899Z,86.28
2022-12-02T23:13:08.595Z,86.47
2022-12-02T23:18:10.536Z,86.13
2022-12-02T23:23:12.477Z,86.37
2022-12-02T23:28:15.756Z,86.76
2022-12-02T23:33:17.679Z,84.97
2022-12-02T23:38:19.608Z,85.84
2022-12-02T23:43:22.957Z,86.55
2022-12-02T23:48:24.948Z,87.22
2022-12-02T23:53:27.109Z,86.72
2022-12-02T23:58:30.389Z,86.90
